sensor_id;sensor_type;location;lat;lon;timestamp;P1;durP1;ratioP1;P2;durP2;ratioP2
16385;SDS011;8302;51.154;4.456;2023-04-01T00:01:52;1.88;;;0.93;;
16385;SDS011;8302;51.154;4.456;2023-04-01T00:04:20;3.03;;;0.73;;
16385;SDS011;8302;51.154;4.456;2023-04-01T00:06:48;1.50;;;1.00;;
16385;SDS011;8302;51.154;4.456;2023-04-01T00:09:15;3.03;;;1.00;;
16385;SDS011;8302;51.154;4.456;2023-04-01T00:11:43;1.95;;;0.60;;
16385;SDS011;8302;51.154;4.456;2023-04-01T00:14:13;1.08;;;0.75;;
16385;SDS011;8302;51.154;4.456;2023-04-01T00:16:40;1.27;;;0.77;;
16385;SDS011;8302;51.154;4.456;2023-04-01T00:19:08;0.65;;;0.65;;
16385;SDS011;8302;51.154;4.456;2023-04-01T00:21:35;0.55;;;0.50;;
16385;SDS011;8302;51.154;4.456;2023-04-01T00:24:03;1.70;;;0.88;;
16385;SDS011;8302;51.154;4.456;2023-04-01T00:26:31;1.15;;;0.60;;
16385;SDS011;8302;51.154;4.456;2023-04-01T00:28:58;2.05;;;0.63;;
16385;SDS011;8302;51.154;4.456;2023-04-01T00:31:28;4.85;;;1.55;;
16385;SDS011;8302;51.154;4.456;2023-04-01T00:33:56;1.52;;;0.63;;
16385;SDS011;8302;51.154;4.456;2023-04-01T00:36:23;0.85;;;0.68;;
16385;SDS011;8302;51.154;4.456;2023-04-01T00:38:51;1.48;;;0.75;;
16385;SDS011;8302;51.154;4.456;2023-04-01T00:41:19;0.63;;;0.60;;
16385;SDS011;8302;51.154;4.456;2023-04-01T00:43:48;1.33;;;0.50;;
16385;SDS011;8302;51.154;4.456;2023-04-01T00:46:16;2.50;;;0.85;;
16385;SDS011;8302;51.154;4.456;2023-04-01T00:48:46;0.95;;;0.52;;
16385;SDS011;8302;51.154;4.456;2023-04-01T00:51:16;2.65;;;0.80;;
16385;SDS011;8302;51.154;4.456;2023-04-01T00:53:45;0.65;;;0.50;;
16385;SDS011;8302;51.154;4.456;2023-04-01T00:56:14;1.08;;;0.80;;
16385;SDS011;8302;51.154;4.456;2023-04-01T00:58:43;3.03;;;0.65;;
16385;SDS011;8302;51.154;4.456;2023-04-01T01:01:11;0.95;;;0.70;;
16385;SDS011;8302;51.154;4.456;2023-04-01T01:03:39;0.30;;;0.30;;
16385;SDS011;8302;51.154;4.456;2023-04-01T01:06:10;1.55;;;0.75;;
16385;SDS011;8302;51.154;4.456;2023-04-01T01:08:48;1.15;;;0.80;;
16385;SDS011;8302;51.154;4.456;2023-04-01T01:11:21;0.82;;;0.60;;
16385;SDS011;8302;51.154;4.456;2023-04-01T01:13:52;1.75;;;0.90;;
16385;SDS011;8302;51.154;4.456;2023-04-01T01:16:24;1.00;;;0.57;;
16385;SDS011;8302;51.154;4.456;2023-04-01T01:18:53;2.55;;;0.50;;
16385;SDS011;8302;51.154;4.456;2023-04-01T01:21:34;0.85;;;0.63;;
16385;SDS011;8302;51.154;4.456;2023-04-01T01:26:57;0.70;;;0.55;;
16385;SDS011;8302;51.154;4.456;2023-04-01T01:32:19;0.77;;;0.68;;
16385;SDS011;8302;51.154;4.456;2023-04-01T01:34:54;0.85;;;0.80;;
16385;SDS011;8302;51.154;4.456;2023-04-01T01:37:25;0.65;;;0.60;;
16385;SDS011;8302;51.154;4.456;2023-04-01T01:39:55;1.13;;;0.63;;
16385;SDS011;8302;51.154;4.456;2023-04-01T01:42:24;0.60;;;0.60;;
16385;SDS011;8302;51.154;4.456;2023-04-01T01:44:53;0.43;;;0.43;;
16385;SDS011;8302;51.154;4.456;2023-04-01T01:47:22;1.17;;;0.60;;
16385;SDS011;8302;51.154;4.456;2023-04-01T01:49:51;0.75;;;0.50;;
16385;SDS011;8302;51.154;4.456;2023-04-01T01:52:19;0.47;;;0.45;;
16385;SDS011;8302;51.154;4.456;2023-04-01T01:54:49;1.35;;;0.70;;
16385;SDS011;8302;51.154;4.456;2023-04-01T01:57:19;1.27;;;0.77;;
16385;SDS011;8302;51.154;4.456;2023-04-01T01:59:50;1.10;;;0.63;;
16385;SDS011;8302;51.154;4.456;2023-04-01T02:02:23;2.70;;;0.68;;
16385;SDS011;8302;51.154;4.456;2023-04-01T02:04:52;0.57;;;0.40;;
16385;SDS011;8302;51.154;4.456;2023-04-01T02:07:21;2.50;;;0.68;;
16385;SDS011;8302;51.154;4.456;2023-04-01T02:09:52;1.92;;;0.65;;
16385;SDS011;8302;51.154;4.456;2023-04-01T02:12:21;0.38;;;0.38;;
16385;SDS011;8302;51.154;4.456;2023-04-01T02:14:50;0.95;;;0.60;;
16385;SDS011;8302;51.154;4.456;2023-04-01T02:17:19;0.30;;;0.30;;
16385;SDS011;8302;51.154;4.456;2023-04-01T02:19:48;0.65;;;0.55;;
16385;SDS011;8302;51.154;4.456;2023-04-01T02:22:18;0.80;;;0.40;;
16385;SDS011;8302;51.154;4.456;2023-04-01T02:24:47;0.70;;;0.40;;
16385;SDS011;8302;51.154;4.456;2023-04-01T02:27:17;1.23;;;1.00;;
16385;SDS011;8302;51.154;4.456;2023-04-01T02:29:46;0.50;;;0.50;;
16385;SDS011;8302;51.154;4.456;2023-04-01T02:32:13;1.00;;;0.50;;
16385;SDS011;8302;51.154;4.456;2023-04-01T02:34:41;0.70;;;0.57;;
16385;SDS011;8302;51.154;4.456;2023-04-01T02:37:10;1.85;;;0.40;;
16385;SDS011;8302;51.154;4.456;2023-04-01T02:39:38;0.80;;;0.52;;
16385;SDS011;8302;51.154;4.456;2023-04-01T02:42:06;1.13;;;0.70;;
16385;SDS011;8302;51.154;4.456;2023-04-01T02:44:35;0.30;;;0.30;;
16385;SDS011;8302;51.154;4.456;2023-04-01T02:47:03;0.47;;;0.45;;
16385;SDS011;8302;51.154;4.456;2023-04-01T02:49:31;0.70;;;0.38;;
16385;SDS011;8302;51.154;4.456;2023-04-01T02:51:59;2.28;;;0.63;;
16385;SDS011;8302;51.154;4.456;2023-04-01T02:54:26;0.80;;;0.80;;
16385;SDS011;8302;51.154;4.456;2023-04-01T02:56:54;1.30;;;0.57;;
16385;SDS011;8302;51.154;4.456;2023-04-01T02:59:22;1.58;;;0.70;;
16385;SDS011;8302;51.154;4.456;2023-04-01T03:01:51;0.95;;;0.50;;
16385;SDS011;8302;51.154;4.456;2023-04-01T03:04:19;1.00;;;0.50;;
16385;SDS011;8302;51.154;4.456;2023-04-01T03:06:46;0.50;;;0.50;;
16385;SDS011;8302;51.154;4.456;2023-04-01T03:09:14;0.52;;;0.40;;
16385;SDS011;8302;51.154;4.456;2023-04-01T03:11:42;0.88;;;0.60;;
16385;SDS011;8302;51.154;4.456;2023-04-01T03:14:09;1.67;;;0.40;;
16385;SDS011;8302;51.154;4.456;2023-04-01T03:16:37;0.60;;;0.50;;
16385;SDS011;8302;51.154;4.456;2023-04-01T03:19:06;3.13;;;0.60;;
16385;SDS011;8302;51.154;4.456;2023-04-01T03:21:34;0.40;;;0.40;;
16385;SDS011;8302;51.154;4.456;2023-04-01T03:24:01;1.00;;;0.63;;
16385;SDS011;8302;51.154;4.456;2023-04-01T03:26:29;0.85;;;0.55;;
16385;SDS011;8302;51.154;4.456;2023-04-01T03:28:57;0.30;;;0.30;;
16385;SDS011;8302;51.154;4.456;2023-04-01T03:31:25;1.95;;;0.50;;
16385;SDS011;8302;51.154;4.456;2023-04-01T03:33:55;0.20;;;0.20;;
16385;SDS011;8302;51.154;4.456;2023-04-01T03:36:24;0.65;;;0.30;;
16385;SDS011;8302;51.154;4.456;2023-04-01T03:38:52;2.38;;;0.70;;
16385;SDS011;8302;51.154;4.456;2023-04-01T03:41:30;0.30;;;0.30;;
16385;SDS011;8302;51.154;4.456;2023-04-01T03:43:58;3.63;;;0.73;;
16385;SDS011;8302;51.154;4.456;2023-04-01T03:46:26;0.60;;;0.52;;
16385;SDS011;8302;51.154;4.456;2023-04-01T03:48:54;0.40;;;0.40;;
16385;SDS011;8302;51.154;4.456;2023-04-01T03:51:21;0.40;;;0.30;;
16385;SDS011;8302;51.154;4.456;2023-04-01T03:53:52;0.63;;;0.43;;
16385;SDS011;8302;51.154;4.456;2023-04-01T03:56:20;0.60;;;0.50;;
16385;SDS011;8302;51.154;4.456;2023-04-01T03:58:49;0.50;;;0.40;;
16385;SDS011;8302;51.154;4.456;2023-04-01T04:01:17;0.47;;;0.40;;
16385;SDS011;8302;51.154;4.456;2023-04-01T04:03:47;0.47;;;0.40;;
16385;SDS011;8302;51.154;4.456;2023-04-01T04:06:17;0.70;;;0.57;;
16385;SDS011;8302;51.154;4.456;2023-04-01T04:08:46;0.77;;;0.60;;
16385;SDS011;8302;51.154;4.456;2023-04-01T04:11:15;0.45;;;0.30;;
16385;SDS011;8302;51.154;4.456;2023-04-01T04:13:43;0.80;;;0.50;;
16385;SDS011;8302;51.154;4.456;2023-04-01T04:16:11;0.50;;;0.50;;
16385;SDS011;8302;51.154;4.456;2023-04-01T04:18:43;2.03;;;0.57;;
16385;SDS011;8302;51.154;4.456;2023-04-01T04:21:12;0.47;;;0.47;;
16385;SDS011;8302;51.154;4.456;2023-04-01T04:23:40;1.00;;;0.77;;
16385;SDS011;8302;51.154;4.456;2023-04-01T04:26:09;0.88;;;0.40;;
16385;SDS011;8302;51.154;4.456;2023-04-01T04:28:39;0.43;;;0.40;;
16385;SDS011;8302;51.154;4.456;2023-04-01T04:31:06;0.38;;;0.38;;
16385;SDS011;8302;51.154;4.456;2023-04-01T04:33:35;0.40;;;0.40;;
16385;SDS011;8302;51.154;4.456;2023-04-01T04:36:03;0.50;;;0.50;;
16385;SDS011;8302;51.154;4.456;2023-04-01T04:38:31;0.50;;;0.50;;
16385;SDS011;8302;51.154;4.456;2023-04-01T04:40:59;0.45;;;0.45;;
16385;SDS011;8302;51.154;4.456;2023-04-01T04:43:27;1.38;;;0.50;;
16385;SDS011;8302;51.154;4.456;2023-04-01T04:45:57;0.50;;;0.50;;
16385;SDS011;8302;51.154;4.456;2023-04-01T04:48:24;0.55;;;0.40;;
16385;SDS011;8302;51.154;4.456;2023-04-01T04:50:52;0.65;;;0.63;;
16385;SDS011;8302;51.154;4.456;2023-04-01T04:53:22;0.40;;;0.40;;
16385;SDS011;8302;51.154;4.456;2023-04-01T04:55:51;1.08;;;0.40;;
16385;SDS011;8302;51.154;4.456;2023-04-01T04:58:36;0.68;;;0.57;;
16385;SDS011;8302;51.154;4.456;2023-04-01T05:01:09;0.75;;;0.52;;
16385;SDS011;8302;51.154;4.456;2023-04-01T05:03:38;0.43;;;0.40;;
16385;SDS011;8302;51.154;4.456;2023-04-01T05:06:06;0.40;;;0.40;;
16385;SDS011;8302;51.154;4.456;2023-04-01T05:08:34;0.30;;;0.30;;
16385;SDS011;8302;51.154;4.456;2023-04-01T05:11:03;0.95;;;0.45;;
16385;SDS011;8302;51.154;4.456;2023-04-01T05:13:32;0.40;;;0.40;;
16385;SDS011;8302;51.154;4.456;2023-04-01T05:16:00;0.40;;;0.40;;
16385;SDS011;8302;51.154;4.456;2023-04-01T05:18:29;0.98;;;0.50;;
16385;SDS011;8302;51.154;4.456;2023-04-01T05:20:56;0.20;;;0.20;;
16385;SDS011;8302;51.154;4.456;2023-04-01T05:23:24;0.40;;;0.40;;
16385;SDS011;8302;51.154;4.456;2023-04-01T05:25:52;1.85;;;0.50;;
16385;SDS011;8302;51.154;4.456;2023-04-01T05:28:20;0.28;;;0.28;;
16385;SDS011;8302;51.154;4.456;2023-04-01T05:30:48;0.63;;;0.40;;
16385;SDS011;8302;51.154;4.456;2023-04-01T05:33:21;2.13;;;0.85;;
16385;SDS011;8302;51.154;4.456;2023-04-01T05:35:51;0.32;;;0.32;;
16385;SDS011;8302;51.154;4.456;2023-04-01T05:38:19;0.60;;;0.50;;
16385;SDS011;8302;51.154;4.456;2023-04-01T05:40:46;0.20;;;0.20;;
16385;SDS011;8302;51.154;4.456;2023-04-01T05:43:14;0.77;;;0.50;;
16385;SDS011;8302;51.154;4.456;2023-04-01T05:45:45;0.28;;;0.28;;
16385;SDS011;8302;51.154;4.456;2023-04-01T05:48:13;0.25;;;0.25;;
16385;SDS011;8302;51.154;4.456;2023-04-01T05:50:41;0.25;;;0.20;;
16385;SDS011;8302;51.154;4.456;2023-04-01T05:53:11;0.55;;;0.40;;
16385;SDS011;8302;51.154;4.456;2023-04-01T05:55:41;0.22;;;0.22;;
16385;SDS011;8302;51.154;4.456;2023-04-01T05:58:09;0.30;;;0.30;;
16385;SDS011;8302;51.154;4.456;2023-04-01T06:00:43;0.35;;;0.35;;
16385;SDS011;8302;51.154;4.456;2023-04-01T06:03:14;0.28;;;0.22;;
16385;SDS011;8302;51.154;4.456;2023-04-01T06:05:42;0.20;;;0.20;;
16385;SDS011;8302;51.154;4.456;2023-04-01T06:08:12;0.10;;;0.10;;
16385;SDS011;8302;51.154;4.456;2023-04-01T06:10:49;1.13;;;0.60;;
16385;SDS011;8302;51.154;4.456;2023-04-01T06:13:19;0.38;;;0.38;;
16385;SDS011;8302;51.154;4.456;2023-04-01T06:15:51;0.73;;;0.73;;
16385;SDS011;8302;51.154;4.456;2023-04-01T06:18:30;0.20;;;0.20;;
16385;SDS011;8302;51.154;4.456;2023-04-01T06:21:00;0.28;;;0.28;;
16385;SDS011;8302;51.154;4.456;2023-04-01T06:23:35;1.10;;;0.52;;
16385;SDS011;8302;51.154;4.456;2023-04-01T06:26:19;0.95;;;0.50;;
16385;SDS011;8302;51.154;4.456;2023-04-01T06:28:58;0.30;;;0.30;;
16385;SDS011;8302;51.154;4.456;2023-04-01T06:31:35;1.35;;;0.60;;
16385;SDS011;8302;51.154;4.456;2023-04-01T06:34:12;0.28;;;0.28;;
16385;SDS011;8302;51.154;4.456;2023-04-01T06:39:31;0.20;;;0.20;;
16385;SDS011;8302;51.154;4.456;2023-04-01T06:42:28;0.30;;;0.30;;
16385;SDS011;8302;51.154;4.456;2023-04-01T06:45:07;0.30;;;0.30;;
16385;SDS011;8302;51.154;4.456;2023-04-01T06:48:17;0.35;;;0.30;;
16385;SDS011;8302;51.154;4.456;2023-04-01T06:51:07;0.35;;;0.35;;
16385;SDS011;8302;51.154;4.456;2023-04-01T06:54:09;0.52;;;0.32;;
16385;SDS011;8302;51.154;4.456;2023-04-01T06:56:59;0.75;;;0.30;;
16385;SDS011;8302;51.154;4.456;2023-04-01T06:59:28;0.28;;;0.28;;
16385;SDS011;8302;51.154;4.456;2023-04-01T07:01:58;1.15;;;0.50;;
16385;SDS011;8302;51.154;4.456;2023-04-01T07:04:29;1.02;;;0.30;;
16385;SDS011;8302;51.154;4.456;2023-04-01T07:06:58;0.50;;;0.50;;
16385;SDS011;8302;51.154;4.456;2023-04-01T07:09:27;0.40;;;0.40;;
16385;SDS011;8302;51.154;4.456;2023-04-01T07:12:40;0.90;;;0.50;;
16385;SDS011;8302;51.154;4.456;2023-04-01T07:15:40;0.90;;;0.45;;
16385;SDS011;8302;51.154;4.456;2023-04-01T07:18:10;1.95;;;0.95;;
16385;SDS011;8302;51.154;4.456;2023-04-01T07:20:39;4.95;;;1.02;;
16385;SDS011;8302;51.154;4.456;2023-04-01T07:23:10;4.13;;;0.93;;
16385;SDS011;8302;51.154;4.456;2023-04-01T07:25:55;0.55;;;0.47;;
16385;SDS011;8302;51.154;4.456;2023-04-01T07:28:27;0.68;;;0.60;;
16385;SDS011;8302;51.154;4.456;2023-04-01T07:31:06;1.40;;;0.70;;
16385;SDS011;8302;51.154;4.456;2023-04-01T07:33:36;1.27;;;0.70;;
16385;SDS011;8302;51.154;4.456;2023-04-01T07:36:08;2.40;;;0.80;;
16385;SDS011;8302;51.154;4.456;2023-04-01T07:38:40;0.85;;;0.73;;
16385;SDS011;8302;51.154;4.456;2023-04-01T07:41:18;4.22;;;1.25;;
16385;SDS011;8302;51.154;4.456;2023-04-01T07:43:54;3.05;;;1.50;;
16385;SDS011;8302;51.154;4.456;2023-04-01T07:46:40;2.60;;;1.20;;
16385;SDS011;8302;51.154;4.456;2023-04-01T07:49:14;4.50;;;1.45;;
16385;SDS011;8302;51.154;4.456;2023-04-01T07:51:45;2.28;;;1.13;;
16385;SDS011;8302;51.154;4.456;2023-04-01T07:54:20;3.05;;;1.40;;
16385;SDS011;8302;51.154;4.456;2023-04-01T07:56:51;4.57;;;1.33;;
16385;SDS011;8302;51.154;4.456;2023-04-01T07:59:37;3.33;;;1.58;;
16385;SDS011;8302;51.154;4.456;2023-04-01T08:02:38;3.72;;;1.33;;
16385;SDS011;8302;51.154;4.456;2023-04-01T08:05:13;1.67;;;1.45;;
16385;SDS011;8302;51.154;4.456;2023-04-01T08:07:44;1.52;;;1.08;;
16385;SDS011;8302;51.154;4.456;2023-04-01T08:10:49;3.75;;;1.48;;
16385;SDS011;8302;51.154;4.456;2023-04-01T08:13:40;2.92;;;1.50;;
16385;SDS011;8302;51.154;4.456;2023-04-01T08:16:22;3.72;;;1.45;;
16385;SDS011;8302;51.154;4.456;2023-04-01T08:18:58;1.52;;;1.33;;
16385;SDS011;8302;51.154;4.456;2023-04-01T08:21:32;4.38;;;1.60;;
16385;SDS011;8302;51.154;4.456;2023-04-01T08:24:05;4.10;;;1.73;;
16385;SDS011;8302;51.154;4.456;2023-04-01T08:26:39;3.92;;;1.50;;
16385;SDS011;8302;51.154;4.456;2023-04-01T08:29:11;2.72;;;1.17;;
16385;SDS011;8302;51.154;4.456;2023-04-01T08:31:43;4.65;;;1.38;;
16385;SDS011;8302;51.154;4.456;2023-04-01T08:34:15;4.13;;;1.35;;
16385;SDS011;8302;51.154;4.456;2023-04-01T08:36:45;2.63;;;1.40;;
16385;SDS011;8302;51.154;4.456;2023-04-01T08:39:16;2.78;;;1.63;;
16385;SDS011;8302;51.154;4.456;2023-04-01T08:41:52;4.95;;;1.40;;
16385;SDS011;8302;51.154;4.456;2023-04-01T08:44:59;2.55;;;1.58;;
16385;SDS011;8302;51.154;4.456;2023-04-01T08:47:39;2.50;;;1.50;;
16385;SDS011;8302;51.154;4.456;2023-04-01T08:50:26;2.80;;;1.40;;
16385;SDS011;8302;51.154;4.456;2023-04-01T08:53:21;3.00;;;1.65;;
16385;SDS011;8302;51.154;4.456;2023-04-01T08:55:56;3.42;;;1.10;;
16385;SDS011;8302;51.154;4.456;2023-04-01T08:58:38;2.28;;;1.40;;
16385;SDS011;8302;51.154;4.456;2023-04-01T09:01:25;2.90;;;1.20;;
16385;SDS011;8302;51.154;4.456;2023-04-01T09:04:00;1.13;;;1.02;;
16385;SDS011;8302;51.154;4.456;2023-04-01T09:06:33;3.85;;;1.30;;
16385;SDS011;8302;51.154;4.456;2023-04-01T09:09:10;3.85;;;1.55;;
16385;SDS011;8302;51.154;4.456;2023-04-01T09:11:53;2.75;;;1.30;;
16385;SDS011;8302;51.154;4.456;2023-04-01T09:17:21;1.85;;;1.38;;
16385;SDS011;8302;51.154;4.456;2023-04-01T09:19:56;2.78;;;1.00;;
16385;SDS011;8302;51.154;4.456;2023-04-01T09:22:34;1.48;;;0.80;;
16385;SDS011;8302;51.154;4.456;2023-04-01T09:25:14;3.15;;;1.17;;
16385;SDS011;8302;51.154;4.456;2023-04-01T09:27:44;2.92;;;1.45;;
16385;SDS011;8302;51.154;4.456;2023-04-01T09:36:03;3.03;;;0.95;;
16385;SDS011;8302;51.154;4.456;2023-04-01T09:38:36;2.45;;;1.20;;
16385;SDS011;8302;51.154;4.456;2023-04-01T09:41:07;0.77;;;0.55;;
16385;SDS011;8302;51.154;4.456;2023-04-01T09:43:58;0.55;;;0.40;;
16385;SDS011;8302;51.154;4.456;2023-04-01T09:46:36;1.55;;;0.80;;
16385;SDS011;8302;51.154;4.456;2023-04-01T09:51:55;0.70;;;0.70;;
16385;SDS011;8302;51.154;4.456;2023-04-01T09:54:32;1.45;;;0.63;;
16385;SDS011;8302;51.154;4.456;2023-04-01T09:57:22;2.38;;;0.85;;
16385;SDS011;8302;51.154;4.456;2023-04-01T10:00:10;0.50;;;0.30;;
16385;SDS011;8302;51.154;4.456;2023-04-01T10:05:51;1.98;;;0.80;;
16385;SDS011;8302;51.154;4.456;2023-04-01T10:11:09;2.55;;;0.88;;
16385;SDS011;8302;51.154;4.456;2023-04-01T10:13:49;1.00;;;0.63;;
16385;SDS011;8302;51.154;4.456;2023-04-01T10:16:41;1.75;;;0.90;;
16385;SDS011;8302;51.154;4.456;2023-04-01T10:19:19;0.20;;;0.20;;
16385;SDS011;8302;51.154;4.456;2023-04-01T10:22:00;1.60;;;0.80;;
16385;SDS011;8302;51.154;4.456;2023-04-01T10:24:42;0.50;;;0.50;;
16385;SDS011;8302;51.154;4.456;2023-04-01T10:27:18;1.38;;;0.40;;
16385;SDS011;8302;51.154;4.456;2023-04-01T10:33:14;1.98;;;0.55;;
16385;SDS011;8302;51.154;4.456;2023-04-01T10:35:58;0.22;;;0.22;;
16385;SDS011;8302;51.154;4.456;2023-04-01T10:38:46;0.30;;;0.30;;
16385;SDS011;8302;51.154;4.456;2023-04-01T10:41:32;0.63;;;0.38;;
16385;SDS011;8302;51.154;4.456;2023-04-01T10:44:45;0.20;;;0.20;;
16385;SDS011;8302;51.154;4.456;2023-04-01T10:47:48;0.30;;;0.30;;
16385;SDS011;8302;51.154;4.456;2023-04-01T10:50:24;0.65;;;0.57;;
16385;SDS011;8302;51.154;4.456;2023-04-01T10:53:12;0.98;;;0.30;;
16385;SDS011;8302;51.154;4.456;2023-04-01T10:56:12;0.73;;;0.40;;
16385;SDS011;8302;51.154;4.456;2023-04-01T11:11:13;0.30;;;0.30;;
16385;SDS011;8302;51.154;4.456;2023-04-01T11:13:58;0.82;;;0.40;;
16385;SDS011;8302;51.154;4.456;2023-04-01T11:16:42;1.20;;;0.47;;
16385;SDS011;8302;51.154;4.456;2023-04-01T11:19:34;0.45;;;0.45;;
16385;SDS011;8302;51.154;4.456;2023-04-01T11:22:21;0.55;;;0.40;;
16385;SDS011;8302;51.154;4.456;2023-04-01T11:24:58;0.45;;;0.45;;
16385;SDS011;8302;51.154;4.456;2023-04-01T11:27:53;0.32;;;0.32;;
16385;SDS011;8302;51.154;4.456;2023-04-01T11:30:28;0.10;;;0.10;;
16385;SDS011;8302;51.154;4.456;2023-04-01T11:33:00;0.63;;;0.63;;
16385;SDS011;8302;51.154;4.456;2023-04-01T11:35:37;0.70;;;0.52;;
16385;SDS011;8302;51.154;4.456;2023-04-01T11:38:12;0.30;;;0.30;;
16385;SDS011;8302;51.154;4.456;2023-04-01T11:40:44;0.52;;;0.40;;
16385;SDS011;8302;51.154;4.456;2023-04-01T11:43:34;0.40;;;0.40;;
16385;SDS011;8302;51.154;4.456;2023-04-01T11:46:23;0.52;;;0.22;;
16385;SDS011;8302;51.154;4.456;2023-04-01T11:48:56;0.82;;;0.40;;
16385;SDS011;8302;51.154;4.456;2023-04-01T11:54:30;0.52;;;0.30;;
16385;SDS011;8302;51.154;4.456;2023-04-01T11:57:04;0.52;;;0.32;;
16385;SDS011;8302;51.154;4.456;2023-04-01T12:02:23;0.40;;;0.40;;
16385;SDS011;8302;51.154;4.456;2023-04-01T12:04:54;0.35;;;0.35;;
16385;SDS011;8302;51.154;4.456;2023-04-01T12:07:29;0.25;;;0.25;;
16385;SDS011;8302;51.154;4.456;2023-04-01T12:10:02;0.63;;;0.38;;
16385;SDS011;8302;51.154;4.456;2023-04-01T12:12:35;1.35;;;0.30;;
16385;SDS011;8302;51.154;4.456;2023-04-01T12:15:21;0.45;;;0.38;;
16385;SDS011;8302;51.154;4.456;2023-04-01T12:17:53;0.50;;;0.40;;
16385;SDS011;8302;51.154;4.456;2023-04-01T12:20:29;1.05;;;0.60;;
16385;SDS011;8302;51.154;4.456;2023-04-01T12:23:03;0.20;;;0.20;;
16385;SDS011;8302;51.154;4.456;2023-04-01T12:25:41;0.38;;;0.38;;
16385;SDS011;8302;51.154;4.456;2023-04-01T12:28:10;1.27;;;0.60;;
16385;SDS011;8302;51.154;4.456;2023-04-01T12:30:45;0.20;;;0.20;;
16385;SDS011;8302;51.154;4.456;2023-04-01T12:33:18;0.52;;;0.38;;
16385;SDS011;8302;51.154;4.456;2023-04-01T12:35:54;0.28;;;0.28;;
16385;SDS011;8302;51.154;4.456;2023-04-01T12:38:26;0.40;;;0.40;;
16385;SDS011;8302;51.154;4.456;2023-04-01T12:46:24;0.55;;;0.55;;
16385;SDS011;8302;51.154;4.456;2023-04-01T12:49:01;0.32;;;0.30;;
16385;SDS011;8302;51.154;4.456;2023-04-01T12:51:36;0.30;;;0.30;;
16385;SDS011;8302;51.154;4.456;2023-04-01T12:54:13;0.22;;;0.22;;
16385;SDS011;8302;51.154;4.456;2023-04-01T12:56:47;0.65;;;0.50;;
16385;SDS011;8302;51.154;4.456;2023-04-01T12:59:24;0.30;;;0.30;;
16385;SDS011;8302;51.154;4.456;2023-04-01T13:01:59;0.45;;;0.45;;
16385;SDS011;8302;51.154;4.456;2023-04-01T13:04:35;0.15;;;0.15;;
16385;SDS011;8302;51.154;4.456;2023-04-01T13:07:13;0.20;;;0.20;;
16385;SDS011;8302;51.154;4.456;2023-04-01T13:09:45;0.17;;;0.17;;
16385;SDS011;8302;51.154;4.456;2023-04-01T13:15:09;0.20;;;0.20;;
16385;SDS011;8302;51.154;4.456;2023-04-01T13:17:42;0.32;;;0.30;;
16385;SDS011;8302;51.154;4.456;2023-04-01T13:20:16;0.47;;;0.30;;
16385;SDS011;8302;51.154;4.456;2023-04-01T13:22:50;0.43;;;0.43;;
16385;SDS011;8302;51.154;4.456;2023-04-01T13:25:21;0.30;;;0.30;;
16385;SDS011;8302;51.154;4.456;2023-04-01T13:27:55;0.30;;;0.30;;
16385;SDS011;8302;51.154;4.456;2023-04-01T13:30:24;0.45;;;0.45;;
16385;SDS011;8302;51.154;4.456;2023-04-01T13:32:55;0.30;;;0.30;;
16385;SDS011;8302;51.154;4.456;2023-04-01T13:35:36;0.32;;;0.32;;
16385;SDS011;8302;51.154;4.456;2023-04-01T13:38:15;0.30;;;0.30;;
16385;SDS011;8302;51.154;4.456;2023-04-01T13:40:48;0.30;;;0.30;;
16385;SDS011;8302;51.154;4.456;2023-04-01T13:43:30;0.30;;;0.30;;
16385;SDS011;8302;51.154;4.456;2023-04-01T13:46:10;0.40;;;0.40;;
16385;SDS011;8302;51.154;4.456;2023-04-01T13:48:46;0.20;;;0.20;;
16385;SDS011;8302;51.154;4.456;2023-04-01T13:51:27;0.30;;;0.30;;
16385;SDS011;8302;51.154;4.456;2023-04-01T13:54:03;0.20;;;0.20;;
16385;SDS011;8302;51.154;4.456;2023-04-01T13:56:37;0.38;;;0.38;;
16385;SDS011;8302;51.154;4.456;2023-04-01T13:59:14;0.68;;;0.50;;
16385;SDS011;8302;51.154;4.456;2023-04-01T14:01:47;0.22;;;0.22;;
16385;SDS011;8302;51.154;4.456;2023-04-01T14:07:08;0.50;;;0.50;;
16385;SDS011;8302;51.154;4.456;2023-04-01T14:09:50;0.50;;;0.50;;
16385;SDS011;8302;51.154;4.456;2023-04-01T14:12:25;0.80;;;0.20;;
16385;SDS011;8302;51.154;4.456;2023-04-01T14:14:59;0.45;;;0.45;;
16385;SDS011;8302;51.154;4.456;2023-04-01T14:17:40;0.45;;;0.40;;
16385;SDS011;8302;51.154;4.456;2023-04-01T14:20:20;0.30;;;0.30;;
16385;SDS011;8302;51.154;4.456;2023-04-01T14:22:54;0.50;;;0.50;;
16385;SDS011;8302;51.154;4.456;2023-04-01T14:25:29;1.13;;;0.40;;
16385;SDS011;8302;51.154;4.456;2023-04-01T14:28:04;2.20;;;0.60;;
16385;SDS011;8302;51.154;4.456;2023-04-01T14:30:38;0.65;;;0.40;;
16385;SDS011;8302;51.154;4.456;2023-04-01T14:33:12;1.00;;;0.40;;
16385;SDS011;8302;51.154;4.456;2023-04-01T14:35:47;1.15;;;0.40;;
16385;SDS011;8302;51.154;4.456;2023-04-01T14:38:25;0.32;;;0.32;;
16385;SDS011;8302;51.154;4.456;2023-04-01T14:40:56;2.28;;;0.65;;
16385;SDS011;8302;51.154;4.456;2023-04-01T14:43:34;7.43;;;0.43;;
16385;SDS011;8302;51.154;4.456;2023-04-01T14:46:08;0.28;;;0.25;;
16385;SDS011;8302;51.154;4.456;2023-04-01T14:48:48;0.43;;;0.43;;
16385;SDS011;8302;51.154;4.456;2023-04-01T14:51:17;1.70;;;0.65;;
16385;SDS011;8302;51.154;4.456;2023-04-01T14:53:53;1.08;;;0.73;;
16385;SDS011;8302;51.154;4.456;2023-04-01T14:56:36;0.35;;;0.35;;
16385;SDS011;8302;51.154;4.456;2023-04-01T14:59:07;0.57;;;0.40;;
16385;SDS011;8302;51.154;4.456;2023-04-01T15:01:37;0.50;;;0.47;;
16385;SDS011;8302;51.154;4.456;2023-04-01T15:06:56;0.47;;;0.47;;
16385;SDS011;8302;51.154;4.456;2023-04-01T15:09:31;0.30;;;0.30;;
16385;SDS011;8302;51.154;4.456;2023-04-01T15:12:05;0.55;;;0.47;;
16385;SDS011;8302;51.154;4.456;2023-04-01T15:14:38;0.88;;;0.40;;
16385;SDS011;8302;51.154;4.456;2023-04-01T15:17:15;0.43;;;0.40;;
16385;SDS011;8302;51.154;4.456;2023-04-01T15:19:48;0.85;;;0.65;;
16385;SDS011;8302;51.154;4.456;2023-04-01T15:25:19;1.58;;;0.47;;
16385;SDS011;8302;51.154;4.456;2023-04-01T15:27:51;0.30;;;0.30;;
16385;SDS011;8302;51.154;4.456;2023-04-01T15:30:29;0.30;;;0.30;;
16385;SDS011;8302;51.154;4.456;2023-04-01T15:33:06;0.60;;;0.50;;
16385;SDS011;8302;51.154;4.456;2023-04-01T15:35:37;0.25;;;0.25;;
16385;SDS011;8302;51.154;4.456;2023-04-01T15:38:06;0.40;;;0.40;;
16385;SDS011;8302;51.154;4.456;2023-04-01T15:40:41;0.35;;;0.35;;
16385;SDS011;8302;51.154;4.456;2023-04-01T15:43:15;0.25;;;0.25;;
16385;SDS011;8302;51.154;4.456;2023-04-01T15:45:50;0.20;;;0.20;;
16385;SDS011;8302;51.154;4.456;2023-04-01T15:48:25;0.30;;;0.30;;
16385;SDS011;8302;51.154;4.456;2023-04-01T15:51:01;0.45;;;0.45;;
16385;SDS011;8302;51.154;4.456;2023-04-01T15:53:37;0.20;;;0.20;;
16385;SDS011;8302;51.154;4.456;2023-04-01T15:56:18;0.30;;;0.30;;
16385;SDS011;8302;51.154;4.456;2023-04-01T15:58:51;0.38;;;0.20;;
16385;SDS011;8302;51.154;4.456;2023-04-01T16:01:26;0.75;;;0.40;;
16385;SDS011;8302;51.154;4.456;2023-04-01T16:03:55;0.30;;;0.30;;
16385;SDS011;8302;51.154;4.456;2023-04-01T16:06:35;0.25;;;0.25;;
16385;SDS011;8302;51.154;4.456;2023-04-01T16:09:27;0.25;;;0.25;;
16385;SDS011;8302;51.154;4.456;2023-04-01T16:12:00;0.43;;;0.43;;
16385;SDS011;8302;51.154;4.456;2023-04-01T16:14:33;0.40;;;0.40;;
16385;SDS011;8302;51.154;4.456;2023-04-01T16:17:07;0.35;;;0.35;;
16385;SDS011;8302;51.154;4.456;2023-04-01T16:19:46;0.38;;;0.38;;
16385;SDS011;8302;51.154;4.456;2023-04-01T16:22:16;0.47;;;0.45;;
16385;SDS011;8302;51.154;4.456;2023-04-01T16:24:48;0.90;;;0.20;;
16385;SDS011;8302;51.154;4.456;2023-04-01T16:27:23;0.20;;;0.20;;
16385;SDS011;8302;51.154;4.456;2023-04-01T16:29:52;0.20;;;0.20;;
16385;SDS011;8302;51.154;4.456;2023-04-01T16:32:22;0.93;;;0.43;;
16385;SDS011;8302;51.154;4.456;2023-04-01T16:34:56;0.32;;;0.32;;
16385;SDS011;8302;51.154;4.456;2023-04-01T16:37:29;1.02;;;0.22;;
16385;SDS011;8302;51.154;4.456;2023-04-01T16:40:01;1.55;;;0.45;;
16385;SDS011;8302;51.154;4.456;2023-04-01T16:42:35;0.73;;;0.60;;
16385;SDS011;8302;51.154;4.456;2023-04-01T16:45:15;0.25;;;0.25;;
16385;SDS011;8302;51.154;4.456;2023-04-01T16:47:46;0.13;;;0.13;;